createdAt,value
2018-10-02T00:01:48.428Z,99404.39
2018-10-02T00:04:16.232Z,99404.77
2018-10-02T00:06:44.014Z,99399.58
2018-10-02T00:09:12.684Z,99400.50
2018-10-02T00:11:45.999Z,99402.17
2018-10-02T00:14:19.258Z,99406.23
2018-10-02T00:16:47.186Z,99407.85
2018-10-02T00:19:14.925Z,99403.52
2018-10-02T00:21:42.809Z,99407.41
2018-10-02T00:24:10.539Z,99410.24
2018-10-02T00:26:38.290Z,99406.80
2018-10-02T00:29:06.003Z,99407.82
2018-10-02T00:31:34.022Z,99413.33
2018-10-02T00:34:01.614Z,99415.47
2018-10-02T00:36:29.355Z,99411.92
2018-10-02T00:38:57.160Z,99412.98
2018-10-02T00:41:24.899Z,99413.73
2018-10-02T00:43:52.675Z,99405.80
2018-10-02T00:46:20.435Z,99407.91
2018-10-02T00:48:49.158Z,99412.44
2018-10-02T00:51:16.963Z,99418.64
2018-10-02T00:53:44.726Z,99421.73
2018-10-02T00:56:12.519Z,99421.27
2018-10-02T00:58:40.251Z,99426.66
2018-10-02T01:01:08.053Z,99428.56
2018-10-02T01:03:35.818Z,99442.47
2018-10-02T01:06:03.560Z,99435.73
2018-10-02T01:08:31.354Z,99435.63
2018-10-02T01:10:59.066Z,99430.02
2018-10-02T01:13:26.863Z,99418.70
2018-10-02T01:15:54.598Z,99427.55
2018-10-02T01:18:22.322Z,99431.09
2018-10-02T01:20:50.058Z,99432.25
2018-10-02T01:23:17.774Z,99423.56
2018-10-02T01:25:45.504Z,99423.94
2018-10-02T01:28:13.199Z,99429.91
2018-10-02T01:30:40.952Z,99423.78
2018-10-02T01:33:08.759Z,99418.61
2018-10-02T01:35:36.491Z,99418.75
2018-10-02T01:38:04.270Z,99417.30
2018-10-02T01:40:32.039Z,99414.90
2018-10-02T01:42:59.791Z,99422.80
2018-10-02T01:45:27.499Z,99421.09
2018-10-02T01:47:55.254Z,99424.77
2018-10-02T01:50:23.021Z,99428.25
2018-10-02T01:52:50.748Z,99429.80
2018-10-02T01:55:18.534Z,99431.88
2018-10-02T01:57:46.298Z,99431.03
2018-10-02T02:00:14.099Z,99431.75
2018-10-02T02:02:41.881Z,99429.60
2018-10-02T02:05:09.647Z,99433.89
2018-10-02T02:07:37.382Z,99437.25
2018-10-02T02:10:05.509Z,99434.22
2018-10-02T02:12:33.622Z,99441.83
2018-10-02T02:15:01.652Z,99443.70
2018-10-02T02:17:29.437Z,99444.87
2018-10-02T02:19:57.258Z,99442.30
2018-10-02T02:22:25.066Z,99444.37
2018-10-02T02:24:52.851Z,99451.83
2018-10-02T02:27:20.633Z,99451.64
2018-10-02T02:29:48.847Z,99443.19
2018-10-02T02:32:16.597Z,99436.27
2018-10-02T02:34:44.378Z,99441.72
2018-10-02T02:37:12.181Z,99437.59
2018-10-02T02:39:39.895Z,99443.16
2018-10-02T02:42:07.651Z,99442.98
2018-10-02T02:44:35.451Z,99439.91
2018-10-02T02:47:08.707Z,99440.77
2018-10-02T02:49:41.860Z,99442.09
2018-10-02T02:52:09.985Z,99445.41
2018-10-02T02:54:37.789Z,99439.41
2018-10-02T02:57:05.435Z,99439.61
2018-10-02T02:59:33.254Z,99443.16
2018-10-02T03:02:01.063Z,99447.68
2018-10-02T03:04:28.821Z,99452.86
2018-10-02T03:06:56.562Z,99454.03
2018-10-02T03:09:24.274Z,99449.31
2018-10-02T03:11:52.034Z,99444.36
2018-10-02T03:14:21.905Z,99453.38
2018-10-02T03:16:49.955Z,99457.97
2018-10-02T03:19:17.775Z,99457.97
2018-10-02T03:21:45.559Z,99463.11
2018-10-02T03:24:13.288Z,99467.02
2018-10-02T03:26:41.050Z,99463.98
2018-10-02T03:29:08.907Z,99461.04
2018-10-02T03:31:36.599Z,99458.79
2018-10-02T03:34:04.404Z,99454.26
2018-10-02T03:36:32.094Z,99462.11
2018-10-02T03:38:59.870Z,99460.44
2018-10-02T03:41:27.736Z,99459.86
2018-10-02T03:43:55.495Z,99457.38
2018-10-02T03:46:23.384Z,99455.51
2018-10-02T03:48:51.187Z,99458.39
2018-10-02T03:51:18.911Z,99464.56
2018-10-02T03:53:46.711Z,99471.06
2018-10-02T03:56:14.474Z,99470.44
2018-10-02T03:58:42.244Z,99469.21
2018-10-02T04:01:09.999Z,99468.17
2018-10-02T04:03:37.891Z,99473.63
2018-10-02T04:06:05.608Z,99479.86
2018-10-02T04:08:33.375Z,99481.51
2018-10-02T04:11:01.167Z,99482.34
2018-10-02T04:13:28.947Z,99488.45
2018-10-02T04:15:56.707Z,99487.36
2018-10-02T04:18:24.558Z,99484.63
2018-10-02T04:20:52.381Z,99483.18
2018-10-02T04:23:20.112Z,99482.95
2018-10-02T04:25:47.842Z,99486.12
2018-10-02T04:28:15.545Z,99496.83
2018-10-02T04:30:43.287Z,99502.12
2018-10-02T04:33:11.088Z,99493.19
2018-10-02T04:35:38.838Z,99488.27
2018-10-02T04:38:06.668Z,99492.36
2018-10-02T04:40:34.439Z,99488.46
2018-10-02T04:43:02.183Z,99495.94
2018-10-02T04:45:29.960Z,99490.95
2018-10-02T04:47:57.767Z,99492.39
2018-10-02T04:50:25.802Z,99488.15
2018-10-02T04:52:54.076Z,99487.86
2018-10-02T04:55:21.866Z,99489.09
2018-10-02T04:57:49.675Z,99490.72
2018-10-02T05:00:17.555Z,99487.80
2018-10-02T05:02:45.302Z,99492.39
2018-10-02T05:05:13.094Z,99492.30
2018-10-02T05:07:40.848Z,99495.62
2018-10-02T05:10:08.635Z,99502.43
2018-10-02T05:12:36.469Z,99504.36
2018-10-02T05:15:04.415Z,99507.02
2018-10-02T05:17:32.215Z,99503.34
2018-10-02T05:19:59.922Z,99511.52
2018-10-02T05:22:27.703Z,99510.50
2018-10-02T05:24:55.512Z,99511.06
2018-10-02T05:27:23.458Z,99518.42
2018-10-02T05:29:51.138Z,99521.21
2018-10-02T05:32:18.975Z,99520.39
2018-10-02T05:34:46.769Z,99520.58
2018-10-02T05:37:14.570Z,99527.03
2018-10-02T05:39:42.279Z,99532.05
2018-10-02T05:42:10.157Z,99529.19
2018-10-02T05:44:37.890Z,99532.41
2018-10-02T05:47:05.707Z,99531.36
2018-10-02T05:49:33.915Z,99534.67
2018-10-02T05:52:01.728Z,99534.50
2018-10-02T05:54:29.455Z,99529.64
2018-10-02T05:56:57.172Z,99533.03
2018-10-02T05:59:24.871Z,99535.91
2018-10-02T06:01:53.184Z,99546.21
2018-10-02T06:04:20.939Z,99551.51
2018-10-02T06:06:48.651Z,99560.08
2018-10-02T06:09:16.468Z,99552.22
2018-10-02T06:11:44.219Z,99551.00
2018-10-02T06:14:12.007Z,99553.68
2018-10-02T06:16:40.243Z,99559.01
2018-10-02T06:19:07.999Z,99575.59
2018-10-02T06:21:35.808Z,99574.17
2018-10-02T06:24:03.647Z,99577.88
2018-10-02T06:26:31.457Z,99580.05
2018-10-02T06:28:59.203Z,99579.95
2018-10-02T06:31:26.894Z,99586.92
2018-10-02T06:33:54.747Z,99588.27
2018-10-02T06:36:22.532Z,99600.77
2018-10-02T06:38:50.401Z,99598.73
2018-10-02T06:41:18.086Z,99599.59
2018-10-02T06:43:45.906Z,99602.65
2018-10-02T06:46:13.680Z,99603.86
2018-10-02T06:48:41.448Z,99605.34
2018-10-02T06:51:09.438Z,99607.17
2018-10-02T06:53:37.134Z,99604.16
2018-10-02T06:56:04.923Z,99601.83
2018-10-02T06:58:32.689Z,99611.56
2018-10-02T07:01:00.407Z,99611.37
2018-10-02T07:03:28.148Z,99610.25
2018-10-02T07:05:55.928Z,99600.27
2018-10-02T07:08:23.679Z,99607.75
2018-10-02T07:10:51.457Z,99606.63
2018-10-02T07:13:19.162Z,99608.83
2018-10-02T07:15:46.907Z,99605.63
2018-10-02T07:18:14.715Z,99612.39
2018-10-02T07:20:42.494Z,99610.75
2018-10-02T07:23:10.295Z,99614.60
2018-10-02T07:25:38.054Z,99615.41
2018-10-02T07:28:05.994Z,99619.09
2018-10-02T07:30:33.739Z,99618.66
2018-10-02T07:33:01.644Z,99613.90
2018-10-02T07:35:29.340Z,99617.99
2018-10-02T07:37:57.147Z,99622.00
2018-10-02T07:40:24.975Z,99620.89
2018-10-02T07:42:52.687Z,99621.63
2018-10-02T07:45:20.480Z,99620.34
2018-10-02T07:47:48.207Z,99625.17
2018-10-02T07:50:16.002Z,99626.55
2018-10-02T07:52:43.959Z,99624.91
2018-10-02T07:55:11.736Z,99623.67
2018-10-02T07:57:39.469Z,99630.68
2018-10-02T08:00:07.516Z,99628.84
2018-10-02T08:02:35.349Z,99636.50
2018-10-02T08:05:03.277Z,99639.68
2018-10-02T08:07:30.987Z,99634.07
2018-10-02T08:09:58.775Z,99646.03
2018-10-02T08:12:26.641Z,99638.44
2018-10-02T08:14:54.521Z,99641.59
2018-10-02T08:17:22.316Z,99642.94
2018-10-02T08:19:50.023Z,99644.69
2018-10-02T08:22:17.874Z,99648.57
2018-10-02T08:24:45.566Z,99639.02
2018-10-02T08:27:13.337Z,99638.50
2018-10-02T08:29:41.161Z,99642.21
2018-10-02T08:32:08.799Z,99646.67
2018-10-02T08:34:36.483Z,99655.64
2018-10-02T08:37:04.281Z,99655.41
2018-10-02T08:39:32.007Z,99656.67
2018-10-02T08:41:59.788Z,99650.63
2018-10-02T08:44:27.595Z,99650.52
2018-10-02T08:46:56.074Z,99651.59
2018-10-02T08:49:23.839Z,99656.25
2018-10-02T08:51:51.737Z,99648.69
2018-10-02T08:54:19.540Z,99653.84
2018-10-02T08:56:47.369Z,99655.55
2018-10-02T08:59:15.180Z,99655.89
2018-10-02T09:01:42.874Z,99664.12
2018-10-02T09:04:10.611Z,99652.84
2018-10-02T09:06:38.442Z,99656.92
2018-10-02T09:09:09.275Z,99658.53
2018-10-02T09:11:37.083Z,99657.94
2018-10-02T09:14:04.923Z,99660.36
2018-10-02T09:16:32.767Z,99653.05
2018-10-02T09:19:00.634Z,99658.30
2018-10-02T09:21:28.413Z,99658.00
2018-10-02T09:23:56.244Z,99645.68
2018-10-02T09:26:24.056Z,99660.06
2018-10-02T09:28:51.822Z,99650.52
2018-10-02T09:31:25.131Z,99647.53
2018-10-02T09:33:58.631Z,99648.02
2018-10-02T09:36:31.903Z,99647.38
2018-10-02T09:39:05.111Z,99653.75
2018-10-02T09:41:38.341Z,99646.94
2018-10-02T09:44:06.577Z,99648.06
2018-10-02T09:46:34.387Z,99649.38
2018-10-02T09:49:02.306Z,99650.72
2018-10-02T09:51:30.091Z,99663.08
2018-10-02T09:53:57.838Z,99667.84
2018-10-02T09:56:30.191Z,99658.91
2018-10-02T09:58:58.067Z,99657.55
2018-10-02T10:02:35.299Z,99653.28
2018-10-02T10:05:03.036Z,99657.63
2018-10-02T10:07:30.784Z,99652.14
2018-10-02T10:09:58.544Z,99662.08
2018-10-02T10:12:26.316Z,99648.78
2018-10-02T10:14:54.089Z,99649.33
2018-10-02T10:17:21.983Z,99646.80
2018-10-02T10:19:49.754Z,99653.23
2018-10-02T10:22:17.543Z,99649.84
2018-10-02T10:24:45.359Z,99642.88
2018-10-02T10:27:13.087Z,99634.22
2018-10-02T10:29:40.862Z,99640.81
2018-10-02T10:32:08.955Z,99636.85
2018-10-02T10:34:36.828Z,99634.00
2018-10-02T10:37:04.580Z,99637.41
2018-10-02T10:39:32.451Z,99636.39
2018-10-02T10:42:00.203Z,99629.89
2018-10-02T10:44:27.962Z,99627.27
2018-10-02T10:46:55.850Z,99613.48
2018-10-02T10:49:23.661Z,99621.20
2018-10-02T10:51:51.448Z,99616.62
2018-10-02T10:54:19.200Z,99610.16
2018-10-02T10:56:47.112Z,99611.05
2018-10-02T10:59:14.907Z,99610.02
2018-10-02T11:01:42.739Z,99609.55
2018-10-02T11:04:10.474Z,99609.84
2018-10-02T11:06:38.242Z,99610.20
2018-10-02T11:09:08.027Z,99617.73
2018-10-02T11:11:35.807Z,99619.13
2018-10-02T11:14:03.663Z,99616.10
2018-10-02T11:16:31.396Z,99599.52
2018-10-02T11:18:59.196Z,99597.81
2018-10-02T11:21:27.025Z,99601.82
2018-10-02T11:23:54.811Z,99602.91
2018-10-02T11:26:22.531Z,99600.98
2018-10-02T11:28:50.299Z,99593.59
2018-10-02T11:31:18.099Z,99590.57
2018-10-02T11:33:45.806Z,99589.29
2018-10-02T11:36:13.660Z,99592.07
2018-10-02T11:38:41.423Z,99581.97
2018-10-02T11:41:09.191Z,99580.52
2018-10-02T11:43:37.007Z,99566.84
2018-10-02T11:46:04.746Z,99569.03
2018-10-02T11:48:32.523Z,99568.63
2018-10-02T11:51:00.325Z,99558.29
2018-10-02T11:53:28.091Z,99559.00
2018-10-02T11:55:55.833Z,99559.78
2018-10-02T11:58:23.653Z,99566.17
2018-10-02T12:00:51.547Z,99571.94
2018-10-02T12:03:19.254Z,99577.23
2018-10-02T12:05:47.112Z,99571.52
2018-10-02T12:08:14.912Z,99572.11
2018-10-02T12:10:42.648Z,99574.84
2018-10-02T12:13:10.434Z,99569.64
2018-10-02T12:15:38.268Z,99572.95
2018-10-02T12:18:06.073Z,99566.08
2018-10-02T12:20:33.811Z,99562.08
2018-10-02T12:23:01.641Z,99558.59
2018-10-02T12:25:29.427Z,99555.50
2018-10-02T12:27:57.223Z,99555.33
2018-10-02T12:30:24.983Z,99546.79
2018-10-02T12:32:52.799Z,99541.06
2018-10-02T12:35:20.572Z,99536.80
2018-10-02T12:37:49.450Z,99548.17
2018-10-02T12:40:17.195Z,99551.01
2018-10-02T12:42:44.899Z,99540.39
2018-10-02T12:45:12.671Z,99543.59
2018-10-02T12:47:40.426Z,99544.03
2018-10-02T12:50:08.292Z,99549.66
2018-10-02T12:52:36.206Z,99545.61
2018-10-02T12:55:04.064Z,99542.84
2018-10-02T12:57:31.826Z,99536.27
2018-10-02T12:59:59.619Z,99549.48
2018-10-02T13:02:27.340Z,99548.73
2018-10-02T13:04:55.147Z,99549.16
2018-10-02T13:07:22.883Z,99543.17
2018-10-02T13:09:50.654Z,99543.90
2018-10-02T13:12:18.407Z,99541.64
2018-10-02T13:14:46.190Z,99536.66
2018-10-02T13:17:13.964Z,99544.39
2018-10-02T13:19:41.724Z,99538.25
2018-10-02T13:22:09.511Z,99542.09
2018-10-02T13:24:37.322Z,99533.30
2018-10-02T13:27:05.119Z,99532.21
2018-10-02T13:29:32.853Z,99531.39
2018-10-02T13:32:00.572Z,99529.36
2018-10-02T13:34:28.422Z,99528.07
2018-10-02T13:36:56.319Z,99541.02
2018-10-02T13:39:24.117Z,99540.05
2018-10-02T13:41:51.878Z,99536.69
2018-10-02T13:44:19.691Z,99549.85
2018-10-02T13:46:47.471Z,99539.09
2018-10-02T13:49:15.222Z,99531.29
2018-10-02T13:51:43.015Z,99536.72
2018-10-02T13:54:10.780Z,99534.80
2018-10-02T13:56:38.754Z,99533.33
2018-10-02T13:59:06.827Z,99540.80
2018-10-02T14:01:34.588Z,99535.87
2018-10-02T14:04:02.435Z,99529.09
2018-10-02T14:06:30.178Z,99530.13
2018-10-02T14:08:57.906Z,99524.91
2018-10-02T14:11:25.711Z,99539.81
2018-10-02T14:13:53.541Z,99545.77
2018-10-02T14:16:21.582Z,99555.50
2018-10-02T14:18:49.583Z,99558.34
2018-10-02T14:21:17.470Z,99558.05
2018-10-02T14:23:45.261Z,99568.55
2018-10-02T14:26:13.053Z,99570.74
2018-10-02T14:28:40.891Z,99572.69
2018-10-02T14:31:08.685Z,99569.35
2018-10-02T14:33:36.402Z,99556.92
2018-10-02T14:36:05.468Z,99554.42
2018-10-02T14:38:33.179Z,99549.94
2018-10-02T14:41:00.907Z,99547.79
2018-10-02T14:43:28.719Z,99547.79
2018-10-02T14:45:56.564Z,99551.23
2018-10-02T14:48:24.883Z,99556.44
2018-10-02T14:50:52.678Z,99553.70
2018-10-02T14:53:20.455Z,99547.66
2018-10-02T14:55:48.227Z,99549.55
2018-10-02T14:58:16.006Z,99550.09
2018-10-02T15:00:43.803Z,99554.16
2018-10-02T15:03:11.687Z,99548.93
2018-10-02T15:05:39.536Z,99549.76
2018-10-02T15:08:07.279Z,99547.82
2018-10-02T15:10:35.033Z,99547.48
2018-10-02T15:13:02.759Z,99552.95
2018-10-02T15:15:30.543Z,99556.54
2018-10-02T15:17:58.344Z,99560.69
2018-10-02T15:20:26.157Z,99548.09
2018-10-02T15:22:53.915Z,99547.81
2018-10-02T15:25:21.653Z,99546.63
2018-10-02T15:27:49.490Z,99545.80
2018-10-02T15:30:17.281Z,99542.75
2018-10-02T15:32:45.058Z,99546.77
2018-10-02T15:35:12.915Z,99558.75
2018-10-02T15:37:40.796Z,99559.98
2018-10-02T15:40:08.691Z,99564.83
2018-10-02T15:42:36.547Z,99564.99
2018-10-02T15:45:04.588Z,99566.63
2018-10-02T15:47:32.395Z,99571.55
2018-10-02T15:50:00.225Z,99569.61
2018-10-02T15:52:28.076Z,99569.77
2018-10-02T15:54:55.890Z,99584.50
2018-10-02T15:57:23.752Z,99582.34
2018-10-02T15:59:51.534Z,99592.58
2018-10-02T16:02:19.305Z,99588.21
2018-10-02T16:04:47.113Z,99592.98
2018-10-02T16:07:14.882Z,99597.59
2018-10-02T16:09:42.816Z,99600.70
2018-10-02T16:12:10.642Z,99611.55
2018-10-02T16:14:38.427Z,99607.45
2018-10-02T16:17:06.520Z,99607.34
2018-10-02T16:19:34.308Z,99603.66
2018-10-02T16:22:02.192Z,99603.34
2018-10-02T16:24:29.848Z,99604.91
2018-10-02T16:26:57.611Z,99605.75
2018-10-02T16:29:25.424Z,99604.05
2018-10-02T16:31:53.177Z,99607.89
2018-10-02T16:34:21.029Z,99609.27
2018-10-02T16:36:48.747Z,99607.64
2018-10-02T16:39:16.542Z,99608.58
2018-10-02T16:41:44.367Z,99613.84
2018-10-02T16:44:12.166Z,99612.48
2018-10-02T16:46:39.931Z,99614.09
2018-10-02T16:49:07.871Z,99621.95
2018-10-02T16:51:35.651Z,99625.22
2018-10-02T16:54:03.371Z,99631.44
2018-10-02T16:56:31.179Z,99630.20
2018-10-02T16:58:58.968Z,99639.44
2018-10-02T17:01:26.811Z,99631.94
2018-10-02T17:03:54.620Z,99635.13
2018-10-02T17:06:22.415Z,99643.30
2018-10-02T17:08:50.190Z,99646.80
2018-10-02T17:11:18.078Z,99648.88
2018-10-02T17:13:45.820Z,99644.41
2018-10-02T17:16:13.524Z,99642.53
2018-10-02T17:18:41.559Z,99645.32
2018-10-02T17:21:09.343Z,99648.57
2018-10-02T17:23:37.011Z,99648.39
2018-10-02T17:26:04.787Z,99645.78
2018-10-02T17:28:32.531Z,99654.06
2018-10-02T17:31:00.277Z,99652.64
2018-10-02T17:33:28.077Z,99664.48
2018-10-02T17:35:55.835Z,99664.66
2018-10-02T17:38:23.510Z,99673.31
2018-10-02T17:40:51.264Z,99674.29
2018-10-02T17:43:19.067Z,99676.84
2018-10-02T17:45:46.808Z,99680.05
2018-10-02T17:48:14.636Z,99683.59
2018-10-02T17:50:42.456Z,99682.31
2018-10-02T17:53:10.203Z,99681.14
2018-10-02T17:55:38.007Z,99681.47
2018-10-02T17:58:06.393Z,99679.00
2018-10-02T18:00:34.283Z,99683.85
2018-10-02T18:03:02.056Z,99681.80
2018-10-02T18:05:29.790Z,99681.89
2018-10-02T18:07:57.522Z,99685.89
2018-10-02T18:10:25.360Z,99687.08
2018-10-02T18:12:53.288Z,99687.44
2018-10-02T18:15:21.026Z,99691.42
2018-10-02T18:17:48.788Z,99694.48
2018-10-02T18:20:16.618Z,99698.76
2018-10-02T18:22:44.378Z,99702.31
2018-10-02T18:25:12.205Z,99704.75
2018-10-02T18:27:40.116Z,99703.03
2018-10-02T18:30:07.984Z,99702.11
2018-10-02T18:32:35.815Z,99703.15
2018-10-02T18:35:03.607Z,99703.58
2018-10-02T18:37:31.546Z,99694.89
2018-10-02T18:39:59.311Z,99694.73
2018-10-02T18:42:27.151Z,99696.03
2018-10-02T18:44:54.947Z,99707.67
2018-10-02T18:47:22.727Z,99711.91
2018-10-02T18:49:50.485Z,99717.27
2018-10-02T18:52:18.316Z,99718.72
2018-10-02T18:54:46.200Z,99713.04
2018-10-02T18:57:13.963Z,99718.05
2018-10-02T18:59:41.868Z,99713.27
2018-10-02T19:02:09.948Z,99716.89
2018-10-02T19:04:37.924Z,99724.77
2018-10-02T19:07:05.757Z,99720.44
2018-10-02T19:09:34.252Z,99728.88
2018-10-02T19:12:07.551Z,99731.67
2018-10-02T19:14:35.459Z,99732.32
2018-10-02T19:17:03.621Z,99738.06
2018-10-02T19:19:36.989Z,99740.17
2018-10-02T19:22:04.779Z,99734.28
2018-10-02T19:24:32.616Z,99739.41
2018-10-02T19:27:00.435Z,99739.22
2018-10-02T19:29:28.224Z,99744.86
2018-10-02T19:32:01.696Z,99745.53
2018-10-02T19:34:29.521Z,99750.30
2018-10-02T19:36:58.848Z,99752.67
2018-10-02T19:39:28.255Z,99766.66
2018-10-02T19:41:56.352Z,99769.22
2018-10-02T19:44:24.091Z,99766.66
2018-10-02T19:46:55.356Z,99781.17
2018-10-02T19:49:24.703Z,99780.86
2018-10-02T19:52:11.515Z,99788.11
2018-10-02T19:54:40.343Z,99782.61
2018-10-02T19:57:09.440Z,99778.61
2018-10-02T19:59:37.272Z,99793.52
2018-10-02T20:02:05.020Z,99794.53
2018-10-02T20:04:32.747Z,99801.75
2018-10-02T20:07:00.558Z,99805.58
2018-10-02T20:09:28.375Z,99808.09
2018-10-02T20:11:56.199Z,99809.14
2018-10-02T20:14:24.749Z,99814.16
2018-10-02T20:16:52.482Z,99815.85
2018-10-02T20:19:20.264Z,99815.61
2018-10-02T20:21:48.019Z,99823.16
2018-10-02T20:24:15.731Z,99826.41
2018-10-02T20:26:43.456Z,99820.95
2018-10-02T20:29:11.273Z,99821.94
2018-10-02T20:31:41.867Z,99825.37
2018-10-02T20:34:09.626Z,99831.98
2018-10-02T20:36:37.473Z,99829.67
2018-10-02T20:39:07.319Z,99828.53
2018-10-02T20:41:35.138Z,99826.88
2018-10-02T20:44:03.030Z,99831.02
2018-10-02T20:46:30.829Z,99829.41
2018-10-02T20:48:58.653Z,99833.74
2018-10-02T20:51:26.528Z,99830.95
2018-10-02T20:53:54.379Z,99828.34
2018-10-02T20:56:22.195Z,99831.65
2018-10-02T20:58:50.027Z,99829.47
2018-10-02T21:01:17.732Z,99828.63
2018-10-02T21:03:45.535Z,99839.90
2018-10-02T21:06:13.338Z,99838.75
2018-10-02T21:08:41.091Z,99836.13
2018-10-02T21:11:08.835Z,99837.59
2018-10-02T21:13:36.667Z,99837.70
2018-10-02T21:16:04.639Z,99832.02
2018-10-02T21:18:32.523Z,99831.42
2018-10-02T21:21:00.346Z,99836.02
2018-10-02T21:23:28.148Z,99842.83
2018-10-02T21:25:56.201Z,99843.05
2018-10-02T21:28:24.425Z,99839.81
2018-10-02T21:30:52.218Z,99838.13
2018-10-02T21:33:20.008Z,99839.63
2018-10-02T21:35:47.940Z,99840.69
2018-10-02T21:38:15.732Z,99842.65
2018-10-02T21:40:43.567Z,99858.33
2018-10-02T21:43:11.396Z,99862.64
2018-10-02T21:45:39.131Z,99857.48
2018-10-02T21:48:06.903Z,99858.81
2018-10-02T21:50:34.683Z,99859.30
2018-10-02T21:53:02.460Z,99855.63
2018-10-02T21:55:30.378Z,99861.88
2018-10-02T21:57:58.134Z,99858.97
2018-10-02T22:00:26.795Z,99862.28
2018-10-02T22:02:54.603Z,99861.20
2018-10-02T22:05:22.355Z,99864.86
2018-10-02T22:07:50.066Z,99865.81
2018-10-02T22:10:17.784Z,99863.81
2018-10-02T22:12:45.577Z,99867.23
2018-10-02T22:15:13.350Z,99872.75
2018-10-02T22:17:41.083Z,99866.41
2018-10-02T22:20:08.856Z,99872.56
2018-10-02T22:22:36.591Z,99877.09
2018-10-02T22:25:04.431Z,99877.47
2018-10-02T22:27:32.263Z,99889.16
2018-10-02T22:30:00.028Z,99887.64
2018-10-02T22:32:27.768Z,99877.63
2018-10-02T22:34:55.499Z,99890.13
2018-10-02T22:37:23.283Z,99878.63
2018-10-02T22:39:51.062Z,99884.25
2018-10-02T22:42:18.790Z,99879.47
2018-10-02T22:44:46.575Z,99889.81
2018-10-02T22:47:14.391Z,99898.38
2018-10-02T22:49:42.146Z,99896.86
2018-10-02T22:52:09.842Z,99896.94
2018-10-02T22:54:37.636Z,99897.46
2018-10-02T22:57:05.432Z,99901.58
2018-10-02T22:59:33.189Z,99898.98
2018-10-02T23:02:00.916Z,99899.30
2018-10-02T23:04:28.692Z,99904.61
2018-10-02T23:06:56.480Z,99896.02
2018-10-02T23:09:24.239Z,99908.96
2018-10-02T23:11:52.009Z,99912.30
2018-10-02T23:14:19.820Z,99914.66
2018-10-02T23:16:47.689Z,99916.47
2018-10-02T23:19:15.495Z,99919.13
2018-10-02T23:21:43.243Z,99919.64
2018-10-02T23:24:10.998Z,99924.48
2018-10-02T23:26:38.755Z,99922.28
2018-10-02T23:29:06.612Z,99921.14
2018-10-02T23:31:34.363Z,99927.94
2018-10-02T23:34:02.199Z,99921.57
2018-10-02T23:36:29.923Z,99917.91
2018-10-02T23:38:57.583Z,99926.87
2018-10-02T23:41:25.428Z,99929.29
2018-10-02T23:43:53.271Z,99922.39
2018-10-02T23:46:21.014Z,99922.49
2018-10-02T23:48:48.748Z,99931.68
2018-10-02T23:51:16.491Z,99928.86
2018-10-02T23:53:44.239Z,99932.20
2018-10-02T23:56:12.010Z,99928.96
2018-10-02T23:58:39.739Z,99927.78
